sensor_id;sensor_type;location;lat;lon;timestamp;P1;durP1;ratioP1;P2;durP2;ratioP2
46589;SDS011;32313;48.722;9.362;2022-09-03T00:00:44;4.17;;;2.60;;
46589;SDS011;32313;48.722;9.362;2022-09-03T00:05:50;2.97;;;2.77;;
46589;SDS011;32313;48.722;9.362;2022-09-03T00:08:35;4.30;;;2.80;;
46589;SDS011;32313;48.722;9.362;2022-09-03T00:11:28;2.83;;;2.60;;
46589;SDS011;32313;48.722;9.362;2022-09-03T00:14:05;2.97;;;2.77;;
46589;SDS011;32313;48.722;9.362;2022-09-03T00:17:09;3.97;;;2.60;;
46589;SDS011;32313;48.722;9.362;2022-09-03T00:19:32;3.67;;;2.97;;
46589;SDS011;32313;48.722;9.362;2022-09-03T00:22:23;4.37;;;2.80;;
46589;SDS011;32313;48.722;9.362;2022-09-03T00:24:53;3.17;;;2.90;;
46589;SDS011;32313;48.722;9.362;2022-09-03T00:27:25;2.87;;;2.67;;
46589;SDS011;32313;48.722;9.362;2022-09-03T00:32:39;3.30;;;2.60;;
46589;SDS011;32313;48.722;9.362;2022-09-03T00:35:25;4.30;;;2.80;;
46589;SDS011;32313;48.722;9.362;2022-09-03T00:37:56;2.90;;;2.70;;
46589;SDS011;32313;48.722;9.362;2022-09-03T00:48:11;3.87;;;2.40;;
46589;SDS011;32313;48.722;9.362;2022-09-03T00:53:57;3.73;;;2.70;;
46589;SDS011;32313;48.722;9.362;2022-09-03T00:56:26;3.03;;;2.60;;
46589;SDS011;32313;48.722;9.362;2022-09-03T00:59:00;3.90;;;2.73;;
46589;SDS011;32313;48.722;9.362;2022-09-03T01:01:35;3.80;;;2.40;;
46589;SDS011;32313;48.722;9.362;2022-09-03T01:19:32;4.10;;;2.63;;
46589;SDS011;32313;48.722;9.362;2022-09-03T01:30:22;4.57;;;2.63;;
46589;SDS011;32313;48.722;9.362;2022-09-03T01:32:58;3.30;;;2.57;;
46589;SDS011;32313;48.722;9.362;2022-09-03T01:35:43;3.10;;;2.53;;
46589;SDS011;32313;48.722;9.362;2022-09-03T01:46:46;2.97;;;2.50;;
46589;SDS011;32313;48.722;9.362;2022-09-03T01:52:01;3.30;;;2.63;;
46589;SDS011;32313;48.722;9.362;2022-09-03T02:02:39;3.53;;;3.23;;
46589;SDS011;32313;48.722;9.362;2022-09-03T02:07:34;3.97;;;3.00;;
46589;SDS011;32313;48.722;9.362;2022-09-03T02:10:03;5.13;;;3.77;;
46589;SDS011;32313;48.722;9.362;2022-09-03T02:12:32;3.83;;;3.23;;
46589;SDS011;32313;48.722;9.362;2022-09-03T02:15:00;4.07;;;2.90;;
46589;SDS011;32313;48.722;9.362;2022-09-03T02:17:30;3.53;;;3.00;;
46589;SDS011;32313;48.722;9.362;2022-09-03T02:19:57;3.10;;;2.90;;
46589;SDS011;32313;48.722;9.362;2022-09-03T02:22:26;3.43;;;3.10;;
46589;SDS011;32313;48.722;9.362;2022-09-03T02:24:52;6.00;;;3.10;;
46589;SDS011;32313;48.722;9.362;2022-09-03T02:27:18;3.00;;;2.80;;
46589;SDS011;32313;48.722;9.362;2022-09-03T02:29:44;3.27;;;2.80;;
46589;SDS011;32313;48.722;9.362;2022-09-03T02:32:10;3.97;;;3.20;;
46589;SDS011;32313;48.722;9.362;2022-09-03T02:34:36;4.30;;;2.93;;
46589;SDS011;32313;48.722;9.362;2022-09-03T02:37:10;4.50;;;3.03;;
46589;SDS011;32313;48.722;9.362;2022-09-03T02:39:37;4.17;;;2.90;;
46589;SDS011;32313;48.722;9.362;2022-09-03T02:42:03;3.50;;;2.93;;
46589;SDS011;32313;48.722;9.362;2022-09-03T02:44:32;4.27;;;2.90;;
46589;SDS011;32313;48.722;9.362;2022-09-03T02:47:02;3.10;;;2.80;;
46589;SDS011;32313;48.722;9.362;2022-09-03T02:49:30;3.67;;;2.83;;
46589;SDS011;32313;48.722;9.362;2022-09-03T02:51:57;3.20;;;2.80;;
46589;SDS011;32313;48.722;9.362;2022-09-03T02:54:29;4.33;;;2.60;;
46589;SDS011;32313;48.722;9.362;2022-09-03T02:56:57;2.93;;;2.60;;
46589;SDS011;32313;48.722;9.362;2022-09-03T02:59:23;3.37;;;3.03;;
46589;SDS011;32313;48.722;9.362;2022-09-03T03:01:52;5.03;;;3.33;;
46589;SDS011;32313;48.722;9.362;2022-09-03T03:04:19;3.40;;;3.10;;
46589;SDS011;32313;48.722;9.362;2022-09-03T03:06:45;3.30;;;3.00;;
46589;SDS011;32313;48.722;9.362;2022-09-03T03:09:11;3.30;;;3.00;;
46589;SDS011;32313;48.722;9.362;2022-09-03T03:11:36;3.07;;;2.70;;
46589;SDS011;32313;48.722;9.362;2022-09-03T03:14:04;5.13;;;3.37;;
46589;SDS011;32313;48.722;9.362;2022-09-03T03:16:30;4.63;;;3.20;;
46589;SDS011;32313;48.722;9.362;2022-09-03T03:18:55;5.33;;;3.20;;
46589;SDS011;32313;48.722;9.362;2022-09-03T03:21:21;3.73;;;3.23;;
46589;SDS011;32313;48.722;9.362;2022-09-03T03:23:47;3.27;;;2.97;;
46589;SDS011;32313;48.722;9.362;2022-09-03T03:26:14;3.20;;;2.90;;
46589;SDS011;32313;48.722;9.362;2022-09-03T03:28:45;4.20;;;3.30;;
46589;SDS011;32313;48.722;9.362;2022-09-03T03:31:13;4.33;;;3.30;;
46589;SDS011;32313;48.722;9.362;2022-09-03T03:33:41;3.60;;;3.30;;
46589;SDS011;32313;48.722;9.362;2022-09-03T03:36:08;3.40;;;3.10;;
46589;SDS011;32313;48.722;9.362;2022-09-03T03:38:36;3.90;;;3.27;;
46589;SDS011;32313;48.722;9.362;2022-09-03T03:43:39;3.70;;;3.40;;
46589;SDS011;32313;48.722;9.362;2022-09-03T03:46:05;3.40;;;3.20;;
46589;SDS011;32313;48.722;9.362;2022-09-03T03:48:31;3.80;;;3.50;;
46589;SDS011;32313;48.722;9.362;2022-09-03T03:51:05;4.37;;;3.23;;
46589;SDS011;32313;48.722;9.362;2022-09-03T03:53:32;4.53;;;3.30;;
46589;SDS011;32313;48.722;9.362;2022-09-03T03:56:01;4.40;;;3.73;;
46589;SDS011;32313;48.722;9.362;2022-09-03T03:58:29;3.43;;;3.23;;
46589;SDS011;32313;48.722;9.362;2022-09-03T04:01:03;4.37;;;3.67;;
46589;SDS011;32313;48.722;9.362;2022-09-03T04:03:34;3.60;;;3.30;;
46589;SDS011;32313;48.722;9.362;2022-09-03T04:05:59;3.57;;;3.37;;
46589;SDS011;32313;48.722;9.362;2022-09-03T04:08:27;3.80;;;3.50;;
46589;SDS011;32313;48.722;9.362;2022-09-03T04:10:52;4.23;;;3.93;;
46589;SDS011;32313;48.722;9.362;2022-09-03T04:13:19;4.23;;;3.80;;
46589;SDS011;32313;48.722;9.362;2022-09-03T04:15:44;4.47;;;3.40;;
46589;SDS011;32313;48.722;9.362;2022-09-03T04:18:10;4.20;;;3.80;;
46589;SDS011;32313;48.722;9.362;2022-09-03T04:20:36;4.03;;;3.60;;
46589;SDS011;32313;48.722;9.362;2022-09-03T04:23:02;5.17;;;3.57;;
46589;SDS011;32313;48.722;9.362;2022-09-03T04:25:28;4.27;;;3.57;;
46589;SDS011;32313;48.722;9.362;2022-09-03T04:27:54;3.70;;;3.20;;
46589;SDS011;32313;48.722;9.362;2022-09-03T04:30:20;3.60;;;3.30;;
46589;SDS011;32313;48.722;9.362;2022-09-03T04:32:48;4.50;;;3.47;;
46589;SDS011;32313;48.722;9.362;2022-09-03T04:35:17;4.87;;;3.83;;
46589;SDS011;32313;48.722;9.362;2022-09-03T04:37:45;3.67;;;3.33;;
46589;SDS011;32313;48.722;9.362;2022-09-03T04:40:11;4.10;;;3.80;;
46589;SDS011;32313;48.722;9.362;2022-09-03T04:42:36;3.80;;;3.50;;
46589;SDS011;32313;48.722;9.362;2022-09-03T04:45:02;4.67;;;3.83;;
46589;SDS011;32313;48.722;9.362;2022-09-03T04:47:28;3.97;;;3.33;;
46589;SDS011;32313;48.722;9.362;2022-09-03T04:49:54;5.07;;;3.70;;
46589;SDS011;32313;48.722;9.362;2022-09-03T04:52:20;5.40;;;3.40;;
46589;SDS011;32313;48.722;9.362;2022-09-03T04:54:45;3.73;;;3.20;;
46589;SDS011;32313;48.722;9.362;2022-09-03T04:57:11;3.80;;;3.43;;
46589;SDS011;32313;48.722;9.362;2022-09-03T04:59:37;3.90;;;3.30;;
46589;SDS011;32313;48.722;9.362;2022-09-03T05:02:05;4.37;;;3.60;;
46589;SDS011;32313;48.722;9.362;2022-09-03T05:04:32;3.57;;;3.33;;
46589;SDS011;32313;48.722;9.362;2022-09-03T05:06:58;3.47;;;3.00;;
46589;SDS011;32313;48.722;9.362;2022-09-03T05:09:23;3.83;;;3.53;;
46589;SDS011;32313;48.722;9.362;2022-09-03T05:11:49;4.23;;;3.60;;
46589;SDS011;32313;48.722;9.362;2022-09-03T05:14:15;3.97;;;3.30;;
46589;SDS011;32313;48.722;9.362;2022-09-03T05:16:40;5.93;;;3.73;;
46589;SDS011;32313;48.722;9.362;2022-09-03T05:19:06;3.70;;;3.07;;
46589;SDS011;32313;48.722;9.362;2022-09-03T05:21:32;3.20;;;3.00;;
46589;SDS011;32313;48.722;9.362;2022-09-03T05:24:02;3.67;;;3.37;;
46589;SDS011;32313;48.722;9.362;2022-09-03T05:26:29;3.40;;;2.80;;
46589;SDS011;32313;48.722;9.362;2022-09-03T05:28:57;3.70;;;3.40;;
46589;SDS011;32313;48.722;9.362;2022-09-03T05:31:25;3.10;;;2.83;;
46589;SDS011;32313;48.722;9.362;2022-09-03T05:33:54;3.80;;;3.03;;
46589;SDS011;32313;48.722;9.362;2022-09-03T05:36:24;3.17;;;2.97;;
46589;SDS011;32313;48.722;9.362;2022-09-03T05:38:52;3.83;;;3.03;;
46589;SDS011;32313;48.722;9.362;2022-09-03T05:41:18;3.93;;;3.30;;
46589;SDS011;32313;48.722;9.362;2022-09-03T05:43:50;2.87;;;2.67;;
46589;SDS011;32313;48.722;9.362;2022-09-03T05:46:20;3.30;;;3.00;;
46589;SDS011;32313;48.722;9.362;2022-09-03T05:48:50;4.87;;;3.00;;
46589;SDS011;32313;48.722;9.362;2022-09-03T05:51:16;5.23;;;3.00;;
46589;SDS011;32313;48.722;9.362;2022-09-03T05:53:43;4.13;;;2.90;;
46589;SDS011;32313;48.722;9.362;2022-09-03T05:56:14;3.10;;;2.80;;
46589;SDS011;32313;48.722;9.362;2022-09-03T05:58:48;2.97;;;2.70;;
46589;SDS011;32313;48.722;9.362;2022-09-03T06:01:22;2.90;;;2.70;;
46589;SDS011;32313;48.722;9.362;2022-09-03T06:03:56;4.50;;;3.43;;
46589;SDS011;32313;48.722;9.362;2022-09-03T06:06:24;5.97;;;3.00;;
46589;SDS011;32313;48.722;9.362;2022-09-03T06:08:52;3.60;;;2.87;;
46589;SDS011;32313;48.722;9.362;2022-09-03T06:11:19;2.97;;;2.77;;
46589;SDS011;32313;48.722;9.362;2022-09-03T06:13:47;4.20;;;2.60;;
46589;SDS011;32313;48.722;9.362;2022-09-03T06:16:12;4.23;;;2.90;;
46589;SDS011;32313;48.722;9.362;2022-09-03T06:18:38;4.53;;;3.03;;
46589;SDS011;32313;48.722;9.362;2022-09-03T06:21:05;3.40;;;2.73;;
46589;SDS011;32313;48.722;9.362;2022-09-03T06:23:32;3.80;;;2.87;;
46589;SDS011;32313;48.722;9.362;2022-09-03T06:28:24;4.57;;;2.87;;
46589;SDS011;32313;48.722;9.362;2022-09-03T06:30:51;3.97;;;2.73;;
46589;SDS011;32313;48.722;9.362;2022-09-03T06:33:17;2.93;;;2.50;;
46589;SDS011;32313;48.722;9.362;2022-09-03T06:35:43;3.07;;;2.77;;
46589;SDS011;32313;48.722;9.362;2022-09-03T06:38:11;4.57;;;2.90;;
46589;SDS011;32313;48.722;9.362;2022-09-03T06:40:37;4.90;;;2.57;;
46589;SDS011;32313;48.722;9.362;2022-09-03T06:43:03;3.90;;;2.70;;
46589;SDS011;32313;48.722;9.362;2022-09-03T06:45:29;4.30;;;2.50;;
46589;SDS011;32313;48.722;9.362;2022-09-03T06:47:55;6.37;;;2.70;;
46589;SDS011;32313;48.722;9.362;2022-09-03T06:50:21;5.00;;;2.57;;
46589;SDS011;32313;48.722;9.362;2022-09-03T06:52:50;4.03;;;2.80;;
46589;SDS011;32313;48.722;9.362;2022-09-03T06:55:19;3.60;;;2.77;;
46589;SDS011;32313;48.722;9.362;2022-09-03T06:57:46;2.53;;;2.30;;
46589;SDS011;32313;48.722;9.362;2022-09-03T07:00:12;3.60;;;2.57;;
46589;SDS011;32313;48.722;9.362;2022-09-03T07:02:38;3.40;;;2.60;;
46589;SDS011;32313;48.722;9.362;2022-09-03T07:05:06;3.13;;;2.20;;
46589;SDS011;32313;48.722;9.362;2022-09-03T07:07:32;2.93;;;2.73;;
46589;SDS011;32313;48.722;9.362;2022-09-03T07:09:58;3.00;;;2.27;;
46589;SDS011;32313;48.722;9.362;2022-09-03T07:12:25;2.40;;;2.20;;
46589;SDS011;32313;48.722;9.362;2022-09-03T07:14:50;4.77;;;2.60;;
46589;SDS011;32313;48.722;9.362;2022-09-03T07:17:16;4.47;;;2.43;;
46589;SDS011;32313;48.722;9.362;2022-09-03T07:19:42;3.47;;;2.70;;
46589;SDS011;32313;48.722;9.362;2022-09-03T07:22:07;2.70;;;2.50;;
46589;SDS011;32313;48.722;9.362;2022-09-03T07:24:33;2.70;;;2.50;;
46589;SDS011;32313;48.722;9.362;2022-09-03T07:27:01;2.80;;;2.50;;
46589;SDS011;32313;48.722;9.362;2022-09-03T07:29:29;3.13;;;2.50;;
46589;SDS011;32313;48.722;9.362;2022-09-03T07:31:55;5.10;;;2.50;;
46589;SDS011;32313;48.722;9.362;2022-09-03T07:34:21;2.67;;;2.47;;
46589;SDS011;32313;48.722;9.362;2022-09-03T07:36:50;3.47;;;2.53;;
46589;SDS011;32313;48.722;9.362;2022-09-03T07:39:16;3.00;;;2.70;;
46589;SDS011;32313;48.722;9.362;2022-09-03T07:41:43;3.33;;;3.03;;
46589;SDS011;32313;48.722;9.362;2022-09-03T07:44:10;4.17;;;2.80;;
46589;SDS011;32313;48.722;9.362;2022-09-03T07:46:37;3.17;;;2.80;;
46589;SDS011;32313;48.722;9.362;2022-09-03T07:49:04;3.20;;;2.87;;
46589;SDS011;32313;48.722;9.362;2022-09-03T07:51:31;3.90;;;3.07;;
46589;SDS011;32313;48.722;9.362;2022-09-03T07:54:00;2.83;;;2.27;;
46589;SDS011;32313;48.722;9.362;2022-09-03T07:56:28;4.07;;;3.00;;
46589;SDS011;32313;48.722;9.362;2022-09-03T07:58:59;3.80;;;2.93;;
46589;SDS011;32313;48.722;9.362;2022-09-03T08:01:25;3.23;;;2.93;;
46589;SDS011;32313;48.722;9.362;2022-09-03T08:03:53;3.80;;;3.20;;
46589;SDS011;32313;48.722;9.362;2022-09-03T08:06:20;3.20;;;2.77;;
46589;SDS011;32313;48.722;9.362;2022-09-03T08:08:47;3.93;;;2.57;;
46589;SDS011;32313;48.722;9.362;2022-09-03T08:11:14;3.03;;;2.63;;
46589;SDS011;32313;48.722;9.362;2022-09-03T08:13:52;3.53;;;2.67;;
46589;SDS011;32313;48.722;9.362;2022-09-03T08:16:21;3.03;;;2.70;;
46589;SDS011;32313;48.722;9.362;2022-09-03T08:18:47;2.80;;;2.40;;
46589;SDS011;32313;48.722;9.362;2022-09-03T08:21:16;2.83;;;2.50;;
46589;SDS011;32313;48.722;9.362;2022-09-03T08:23:47;2.80;;;2.50;;
46589;SDS011;32313;48.722;9.362;2022-09-03T08:26:15;4.90;;;2.90;;
46589;SDS011;32313;48.722;9.362;2022-09-03T08:28:42;3.00;;;2.13;;
46589;SDS011;32313;48.722;9.362;2022-09-03T08:31:09;5.80;;;2.97;;
46589;SDS011;32313;48.722;9.362;2022-09-03T08:33:43;2.67;;;2.47;;
46589;SDS011;32313;48.722;9.362;2022-09-03T08:38:38;3.90;;;2.57;;
46589;SDS011;32313;48.722;9.362;2022-09-03T08:41:11;2.87;;;2.37;;
46589;SDS011;32313;48.722;9.362;2022-09-03T08:46:23;2.80;;;2.47;;
46589;SDS011;32313;48.722;9.362;2022-09-03T08:48:56;2.70;;;2.50;;
46589;SDS011;32313;48.722;9.362;2022-09-03T08:51:23;4.67;;;2.70;;
46589;SDS011;32313;48.722;9.362;2022-09-03T08:53:52;4.60;;;2.33;;
46589;SDS011;32313;48.722;9.362;2022-09-03T08:56:27;2.97;;;2.30;;
46589;SDS011;32313;48.722;9.362;2022-09-03T08:58:55;5.33;;;2.37;;
46589;SDS011;32313;48.722;9.362;2022-09-03T09:09:34;2.08;;;1.98;;
46589;SDS011;32313;48.722;9.362;2022-09-03T09:20:42;2.75;;;2.20;;
46589;SDS011;32313;48.722;9.362;2022-09-03T09:23:12;2.65;;;2.15;;
46589;SDS011;32313;48.722;9.362;2022-09-03T09:25:46;2.42;;;2.22;;
46589;SDS011;32313;48.722;9.362;2022-09-03T09:30:46;3.00;;;2.40;;
46589;SDS011;32313;48.722;9.362;2022-09-03T09:33:13;2.92;;;2.72;;
46589;SDS011;32313;48.722;9.362;2022-09-03T09:35:41;2.63;;;2.13;;
46589;SDS011;32313;48.722;9.362;2022-09-03T09:38:07;2.30;;;2.10;;
46589;SDS011;32313;48.722;9.362;2022-09-03T09:40:35;2.40;;;2.20;;
46589;SDS011;32313;48.722;9.362;2022-09-03T09:43:07;3.90;;;2.65;;
46589;SDS011;32313;48.722;9.362;2022-09-03T09:45:41;4.25;;;2.55;;
46589;SDS011;32313;48.722;9.362;2022-09-03T09:48:30;4.45;;;2.90;;
46589;SDS011;32313;48.722;9.362;2022-09-03T09:51:07;2.70;;;2.50;;
46589;SDS011;32313;48.722;9.362;2022-09-03T09:53:36;2.37;;;2.17;;
46589;SDS011;32313;48.722;9.362;2022-09-03T09:56:03;5.20;;;2.37;;
46589;SDS011;32313;48.722;9.362;2022-09-03T09:58:30;2.60;;;2.30;;
46589;SDS011;32313;48.722;9.362;2022-09-03T10:00:58;2.88;;;2.50;;
46589;SDS011;32313;48.722;9.362;2022-09-03T10:03:32;2.75;;;2.20;;
46589;SDS011;32313;48.722;9.362;2022-09-03T10:06:02;3.22;;;2.05;;
46589;SDS011;32313;48.722;9.362;2022-09-03T10:08:52;2.03;;;1.85;;
46589;SDS011;32313;48.722;9.362;2022-09-03T10:11:29;2.33;;;1.80;;
46589;SDS011;32313;48.722;9.362;2022-09-03T10:13:55;2.17;;;1.98;;
46589;SDS011;32313;48.722;9.362;2022-09-03T10:16:22;2.15;;;1.95;;
46589;SDS011;32313;48.722;9.362;2022-09-03T10:26:39;2.15;;;1.98;;
46589;SDS011;32313;48.722;9.362;2022-09-03T10:29:06;2.38;;;2.17;;
46589;SDS011;32313;48.722;9.362;2022-09-03T10:46:16;2.58;;;2.38;;
46589;SDS011;32313;48.722;9.362;2022-09-03T10:49:05;3.97;;;2.30;;
46589;SDS011;32313;48.722;9.362;2022-09-03T10:51:37;3.17;;;2.45;;
46589;SDS011;32313;48.722;9.362;2022-09-03T10:56:42;2.75;;;2.50;;
46589;SDS011;32313;48.722;9.362;2022-09-03T11:10:49;2.63;;;2.43;;
46589;SDS011;32313;48.722;9.362;2022-09-03T11:16:53;2.97;;;2.55;;
46589;SDS011;32313;48.722;9.362;2022-09-03T11:19:33;2.23;;;2.10;;
46589;SDS011;32313;48.722;9.362;2022-09-03T11:22:05;3.60;;;2.40;;
46589;SDS011;32313;48.722;9.362;2022-09-03T11:24:32;2.45;;;2.25;;
46589;SDS011;32313;48.722;9.362;2022-09-03T11:27:25;2.55;;;2.35;;
46589;SDS011;32313;48.722;9.362;2022-09-03T11:30:06;4.67;;;2.80;;
46589;SDS011;32313;48.722;9.362;2022-09-03T11:33:08;3.00;;;2.80;;
46589;SDS011;32313;48.722;9.362;2022-09-03T11:38:04;2.83;;;2.57;;
46589;SDS011;32313;48.722;9.362;2022-09-03T11:41:12;2.83;;;2.63;;
46589;SDS011;32313;48.722;9.362;2022-09-03T11:44:19;4.63;;;2.80;;
46589;SDS011;32313;48.722;9.362;2022-09-03T11:46:52;2.80;;;2.60;;
46589;SDS011;32313;48.722;9.362;2022-09-03T11:49:28;4.63;;;3.00;;
46589;SDS011;32313;48.722;9.362;2022-09-03T11:52:00;2.80;;;2.50;;
46589;SDS011;32313;48.722;9.362;2022-09-03T11:54:31;2.83;;;2.63;;
46589;SDS011;32313;48.722;9.362;2022-09-03T11:57:09;3.30;;;3.00;;
46589;SDS011;32313;48.722;9.362;2022-09-03T11:59:36;3.30;;;3.00;;
46589;SDS011;32313;48.722;9.362;2022-09-03T12:02:03;3.10;;;2.80;;
46589;SDS011;32313;48.722;9.362;2022-09-03T12:04:58;3.40;;;2.80;;
46589;SDS011;32313;48.722;9.362;2022-09-03T12:10:36;3.40;;;3.10;;
46589;SDS011;32313;48.722;9.362;2022-09-03T12:19:15;6.00;;;3.50;;
46589;SDS011;32313;48.722;9.362;2022-09-03T12:21:47;5.87;;;5.10;;
46589;SDS011;32313;48.722;9.362;2022-09-03T12:24:13;5.57;;;4.83;;
46589;SDS011;32313;48.722;9.362;2022-09-03T12:26:41;7.40;;;4.33;;
46589;SDS011;32313;48.722;9.362;2022-09-03T12:29:18;3.70;;;2.70;;
46589;SDS011;32313;48.722;9.362;2022-09-03T12:31:47;3.20;;;2.10;;
46589;SDS011;32313;48.722;9.362;2022-09-03T12:34:15;2.37;;;2.03;;
46589;SDS011;32313;48.722;9.362;2022-09-03T12:36:45;2.60;;;2.27;;
46589;SDS011;32313;48.722;9.362;2022-09-03T12:39:31;2.33;;;2.10;;
46589;SDS011;32313;48.722;9.362;2022-09-03T12:44:31;3.47;;;2.30;;
46589;SDS011;32313;48.722;9.362;2022-09-03T12:47:13;2.67;;;2.47;;
46589;SDS011;32313;48.722;9.362;2022-09-03T12:49:46;5.27;;;2.77;;
46589;SDS011;32313;48.722;9.362;2022-09-03T12:54:55;4.03;;;2.77;;
46589;SDS011;32313;48.722;9.362;2022-09-03T12:57:36;3.97;;;3.00;;
46589;SDS011;32313;48.722;9.362;2022-09-03T13:00:08;3.20;;;2.80;;
46589;SDS011;32313;48.722;9.362;2022-09-03T13:02:41;5.03;;;2.87;;
46589;SDS011;32313;48.722;9.362;2022-09-03T13:05:17;3.73;;;2.93;;
46589;SDS011;32313;48.722;9.362;2022-09-03T13:07:48;5.23;;;3.37;;
46589;SDS011;32313;48.722;9.362;2022-09-03T13:12:57;9.30;;;3.27;;
46589;SDS011;32313;48.722;9.362;2022-09-03T13:15:24;5.53;;;3.30;;
46589;SDS011;32313;48.722;9.362;2022-09-03T13:39:29;5.13;;;3.60;;
46589;SDS011;32313;48.722;9.362;2022-09-03T13:42:05;5.83;;;3.80;;
46589;SDS011;32313;48.722;9.362;2022-09-03T13:44:41;4.57;;;3.50;;
46589;SDS011;32313;48.722;9.362;2022-09-03T13:52:52;5.80;;;3.83;;
46589;SDS011;32313;48.722;9.362;2022-09-03T13:55:46;6.17;;;3.47;;
46589;SDS011;32313;48.722;9.362;2022-09-03T13:58:20;8.27;;;3.80;;
46589;SDS011;32313;48.722;9.362;2022-09-03T14:09:03;4.17;;;2.77;;
46589;SDS011;32313;48.722;9.362;2022-09-03T14:17:00;1.83;;;1.40;;
46589;SDS011;32313;48.722;9.362;2022-09-03T14:22:31;1.70;;;1.60;;
46589;SDS011;32313;48.722;9.362;2022-09-03T14:25:08;1.97;;;1.50;;
46589;SDS011;32313;48.722;9.362;2022-09-03T14:27:40;2.67;;;1.30;;
46589;SDS011;32313;48.722;9.362;2022-09-03T14:30:16;1.17;;;1.00;;
46589;SDS011;32313;48.722;9.362;2022-09-03T14:44:22;1.43;;;1.30;;
46589;SDS011;32313;48.722;9.362;2022-09-03T15:15:12;1.53;;;1.27;;
46589;SDS011;32313;48.722;9.362;2022-09-03T15:23:55;1.38;;;0.95;;
46589;SDS011;32313;48.722;9.362;2022-09-03T15:37:28;0.73;;;0.73;;
46589;SDS011;32313;48.722;9.362;2022-09-03T15:40:56;0.95;;;0.90;;
46589;SDS011;32313;48.722;9.362;2022-09-03T15:45:55;0.95;;;0.95;;
46589;SDS011;32313;48.722;9.362;2022-09-03T15:51:20;0.93;;;0.80;;
46589;SDS011;32313;48.722;9.362;2022-09-03T15:59:45;1.25;;;1.00;;
46589;SDS011;32313;48.722;9.362;2022-09-03T16:08:27;2.05;;;1.20;;
46589;SDS011;32313;48.722;9.362;2022-09-03T16:22:30;2.20;;;1.27;;
46589;SDS011;32313;48.722;9.362;2022-09-03T16:25:10;1.17;;;1.10;;
46589;SDS011;32313;48.722;9.362;2022-09-03T16:37:00;1.63;;;1.30;;
46589;SDS011;32313;48.722;9.362;2022-09-03T16:53:15;2.80;;;2.27;;
46589;SDS011;32313;48.722;9.362;2022-09-03T16:56:03;2.60;;;2.13;;
46589;SDS011;32313;48.722;9.362;2022-09-03T16:58:52;2.77;;;2.10;;
46589;SDS011;32313;48.722;9.362;2022-09-03T17:07:46;1.80;;;1.60;;
46589;SDS011;32313;48.722;9.362;2022-09-03T17:18:50;1.90;;;1.80;;
46589;SDS011;32313;48.722;9.362;2022-09-03T17:30:01;2.60;;;2.40;;
46589;SDS011;32313;48.722;9.362;2022-09-03T17:32:38;2.93;;;2.63;;
46589;SDS011;32313;48.722;9.362;2022-09-03T17:38:22;4.87;;;4.23;;
46589;SDS011;32313;48.722;9.362;2022-09-03T17:41:14;3.27;;;2.97;;
46589;SDS011;32313;48.722;9.362;2022-09-03T17:44:02;4.30;;;2.77;;
46589;SDS011;32313;48.722;9.362;2022-09-03T17:46:38;4.13;;;2.60;;
46589;SDS011;32313;48.722;9.362;2022-09-03T17:49:28;2.97;;;2.50;;
46589;SDS011;32313;48.722;9.362;2022-09-03T17:52:01;3.00;;;2.70;;
46589;SDS011;32313;48.722;9.362;2022-09-03T17:54:33;3.07;;;2.83;;
46589;SDS011;32313;48.722;9.362;2022-09-03T17:57:14;3.37;;;2.97;;
46589;SDS011;32313;48.722;9.362;2022-09-03T18:16:28;3.10;;;2.80;;
46589;SDS011;32313;48.722;9.362;2022-09-03T18:19:13;3.30;;;2.87;;
46589;SDS011;32313;48.722;9.362;2022-09-03T18:22:25;3.57;;;2.60;;
46589;SDS011;32313;48.722;9.362;2022-09-03T18:25:14;4.30;;;3.00;;
46589;SDS011;32313;48.722;9.362;2022-09-03T18:28:00;7.63;;;6.93;;
46589;SDS011;32313;48.722;9.362;2022-09-03T18:30:48;5.67;;;4.77;;
46589;SDS011;32313;48.722;9.362;2022-09-03T18:33:33;5.87;;;5.30;;
46589;SDS011;32313;48.722;9.362;2022-09-03T18:36:17;5.40;;;4.90;;
46589;SDS011;32313;48.722;9.362;2022-09-03T18:39:08;5.87;;;5.30;;
46589;SDS011;32313;48.722;9.362;2022-09-03T18:48:17;3.97;;;3.67;;
46589;SDS011;32313;48.722;9.362;2022-09-03T18:51:43;6.50;;;4.07;;
46589;SDS011;32313;48.722;9.362;2022-09-03T19:04:01;3.50;;;3.20;;
46589;SDS011;32313;48.722;9.362;2022-09-03T19:07:04;3.73;;;3.40;;
46589;SDS011;32313;48.722;9.362;2022-09-03T19:16:05;3.87;;;3.50;;
46589;SDS011;32313;48.722;9.362;2022-09-03T19:21:58;5.03;;;4.03;;
46589;SDS011;32313;48.722;9.362;2022-09-03T19:24:57;5.93;;;4.00;;
46589;SDS011;32313;48.722;9.362;2022-09-03T19:27:54;5.23;;;4.00;;
46589;SDS011;32313;48.722;9.362;2022-09-03T19:36:55;4.03;;;3.73;;
46589;SDS011;32313;48.722;9.362;2022-09-03T19:54:56;4.70;;;3.87;;
46589;SDS011;32313;48.722;9.362;2022-09-03T19:57:42;3.93;;;3.63;;
46589;SDS011;32313;48.722;9.362;2022-09-03T20:00:29;4.37;;;3.97;;
46589;SDS011;32313;48.722;9.362;2022-09-03T20:03:15;4.53;;;4.13;;
46589;SDS011;32313;48.722;9.362;2022-09-03T20:06:02;4.37;;;3.63;;
46589;SDS011;32313;48.722;9.362;2022-09-03T20:08:49;4.50;;;4.10;;
46589;SDS011;32313;48.722;9.362;2022-09-03T20:11:34;4.77;;;3.60;;
46589;SDS011;32313;48.722;9.362;2022-09-03T20:14:03;7.93;;;4.03;;
46589;SDS011;32313;48.722;9.362;2022-09-03T20:16:39;4.57;;;4.00;;
46589;SDS011;32313;48.722;9.362;2022-09-03T20:21:55;5.20;;;4.70;;
46589;SDS011;32313;48.722;9.362;2022-09-03T20:30:10;5.77;;;4.50;;
46589;SDS011;32313;48.722;9.362;2022-09-03T20:42:08;4.53;;;4.13;;
46589;SDS011;32313;48.722;9.362;2022-09-03T20:47:18;7.77;;;5.30;;
46589;SDS011;32313;48.722;9.362;2022-09-03T20:50:14;5.47;;;4.97;;
46589;SDS011;32313;48.722;9.362;2022-09-03T20:55:43;5.80;;;5.20;;
46589;SDS011;32313;48.722;9.362;2022-09-03T20:58:22;6.20;;;5.60;;
46589;SDS011;32313;48.722;9.362;2022-09-03T21:01:07;5.87;;;4.57;;
46589;SDS011;32313;48.722;9.362;2022-09-03T21:03:57;6.20;;;4.97;;
46589;SDS011;32313;48.722;9.362;2022-09-03T21:12:05;5.03;;;4.63;;
46589;SDS011;32313;48.722;9.362;2022-09-03T21:20:20;5.30;;;4.80;;
46589;SDS011;32313;48.722;9.362;2022-09-03T21:28:24;5.73;;;4.33;;
46589;SDS011;32313;48.722;9.362;2022-09-03T21:31:19;6.33;;;4.47;;
46589;SDS011;32313;48.722;9.362;2022-09-03T21:33:50;5.10;;;4.60;;
46589;SDS011;32313;48.722;9.362;2022-09-03T21:36:29;4.90;;;4.50;;
46589;SDS011;32313;48.722;9.362;2022-09-03T21:41:58;6.83;;;4.43;;
46589;SDS011;32313;48.722;9.362;2022-09-03T21:47:18;7.60;;;4.70;;
46589;SDS011;32313;48.722;9.362;2022-09-03T21:52:38;4.57;;;4.27;;
46589;SDS011;32313;48.722;9.362;2022-09-03T21:58:03;5.13;;;4.63;;
46589;SDS011;32313;48.722;9.362;2022-09-03T22:00:50;5.50;;;4.60;;
46589;SDS011;32313;48.722;9.362;2022-09-03T22:03:28;5.17;;;4.23;;
46589;SDS011;32313;48.722;9.362;2022-09-03T22:06:01;4.63;;;4.23;;
46589;SDS011;32313;48.722;9.362;2022-09-03T22:08:39;5.97;;;4.20;;
46589;SDS011;32313;48.722;9.362;2022-09-03T22:19:09;13.03;;;5.20;;
46589;SDS011;32313;48.722;9.362;2022-09-03T22:21:47;7.77;;;5.47;;
46589;SDS011;32313;48.722;9.362;2022-09-03T22:24:32;8.40;;;6.40;;
46589;SDS011;32313;48.722;9.362;2022-09-03T22:36:06;9.00;;;6.50;;
46589;SDS011;32313;48.722;9.362;2022-09-03T22:38:39;18.93;;;8.13;;
46589;SDS011;32313;48.722;9.362;2022-09-03T22:52:43;11.10;;;7.73;;
46589;SDS011;32313;48.722;9.362;2022-09-03T22:58:04;13.37;;;8.73;;
46589;SDS011;32313;48.722;9.362;2022-09-03T23:00:38;6.90;;;5.93;;
46589;SDS011;32313;48.722;9.362;2022-09-03T23:03:07;9.07;;;7.30;;
46589;SDS011;32313;48.722;9.362;2022-09-03T23:06:31;11.67;;;8.53;;
46589;SDS011;32313;48.722;9.362;2022-09-03T23:09:10;15.30;;;10.37;;
46589;SDS011;32313;48.722;9.362;2022-09-03T23:14:14;18.13;;;10.87;;
46589;SDS011;32313;48.722;9.362;2022-09-03T23:17:04;13.80;;;9.50;;
46589;SDS011;32313;48.722;9.362;2022-09-03T23:19:38;13.60;;;9.03;;
46589;SDS011;32313;48.722;9.362;2022-09-03T23:24:59;15.33;;;9.83;;